createdAt,value
2022-12-23T00:03:16.075Z,100288.91
2022-12-23T00:08:18.223Z,100278.25
2022-12-23T00:13:38.958Z,100282.75
2022-12-23T00:18:41.940Z,100281.91
2022-12-23T00:23:48.114Z,100279.44
2022-12-23T00:28:50.462Z,100281.44
2022-12-23T00:33:53.590Z,100288.56
2022-12-23T00:39:19.542Z,100277.28
2022-12-23T00:44:28.355Z,100291.06
2022-12-23T00:49:41.971Z,100286.41
2022-12-23T00:54:48.501Z,100280.59
2022-12-23T00:59:50.253Z,100282.78
2022-12-23T01:05:10.520Z,100278.44
2022-12-23T01:10:14.581Z,100276.13
2022-12-23T01:15:17.441Z,100282.78
2022-12-23T01:20:22.602Z,100292.91
2022-12-23T01:25:26.550Z,100290.44
2022-12-23T01:30:31.229Z,100295.56
2022-12-23T01:35:34.579Z,100308.03
2022-12-23T01:40:39.614Z,100309.66
2022-12-23T01:45:50.347Z,100305.16
2022-12-23T01:50:56.360Z,100310.84
2022-12-23T01:56:00.992Z,100308.69
2022-12-23T02:01:21.213Z,100300.41
2022-12-23T02:07:07.491Z,100320.47
2022-12-23T02:12:37.156Z,100319.16
2022-12-23T02:18:01.627Z,100307.69
2022-12-23T02:23:06.553Z,100319.00
2022-12-23T02:28:45.457Z,100325.13
2022-12-23T02:33:55.383Z,100333.94
2022-12-23T02:39:17.203Z,100329.28
2022-12-23T02:44:40.650Z,100340.72
2022-12-23T02:49:48.999Z,100354.69
2022-12-23T02:54:59.091Z,100363.66
2022-12-23T03:00:01.711Z,100363.00
2022-12-23T03:05:23.036Z,100363.34
2022-12-23T03:10:45.507Z,100371.47
2022-12-23T03:16:25.937Z,100365.16
2022-12-23T03:21:41.120Z,100363.16
2022-12-23T03:26:45.504Z,100365.16
2022-12-23T03:31:47.626Z,100371.47
2022-12-23T03:36:52.329Z,100365.44
2022-12-23T03:42:02.629Z,100372.75
2022-12-23T03:47:11.500Z,100380.06
2022-12-23T03:52:21.923Z,100387.19
2022-12-23T03:57:28.739Z,100386.22
2022-12-23T04:02:51.102Z,100391.34
2022-12-23T04:08:05.180Z,100403.50
2022-12-23T04:13:10.804Z,100413.25
2022-12-23T04:18:12.599Z,100423.06
2022-12-23T04:23:19.062Z,100424.75
2022-12-23T04:28:20.818Z,100432.56
2022-12-23T04:33:24.884Z,100434.25
2022-12-23T04:38:29.215Z,100432.41
2022-12-23T04:43:33.168Z,100429.06
2022-12-23T04:48:35.770Z,100434.50
2022-12-23T04:53:39.834Z,100437.66
2022-12-23T04:58:41.567Z,100445.13
2022-12-23T05:03:43.272Z,100438.00
2022-12-23T05:08:47.966Z,100448.63
2022-12-23T05:13:49.685Z,100446.13
2022-12-23T05:18:58.111Z,100455.41
2022-12-23T05:23:59.848Z,100466.69
2022-12-23T05:29:02.563Z,100463.03
2022-12-23T05:34:06.796Z,100459.25
2022-12-23T05:39:14.328Z,100454.09
2022-12-23T05:44:18.550Z,100458.72
2022-12-23T05:49:23.222Z,100459.06
2022-12-23T05:54:25.619Z,100454.88
2022-12-23T05:59:31.665Z,100461.66
2022-12-23T06:04:33.605Z,100455.50
2022-12-23T06:09:40.164Z,100469.41
2022-12-23T06:14:44.204Z,100465.88
2022-12-23T06:19:48.971Z,100484.66
2022-12-23T06:24:53.227Z,100475.69
2022-12-23T06:29:55.060Z,100473.84
2022-12-23T06:34:57.708Z,100466.75
2022-12-23T06:40:04.221Z,100473.69
2022-12-23T06:45:08.698Z,100485.97
2022-12-23T06:50:13.463Z,100507.88
2022-12-23T06:55:18.307Z,100525.47
2022-12-23T07:00:20.236Z,100522.97
2022-12-23T07:05:22.072Z,100507.19
2022-12-23T07:10:26.035Z,100516.16
2022-12-23T07:15:30.549Z,100540.59
2022-12-23T07:20:34.611Z,100540.41
2022-12-23T07:25:39.326Z,100552.69
2022-12-23T07:30:41.050Z,100565.16
2022-12-23T07:35:45.452Z,100565.28
2022-12-23T07:40:51.948Z,100561.63
2022-12-23T07:46:08.604Z,100573.13
2022-12-23T07:51:10.399Z,100573.13
2022-12-23T07:56:14.448Z,100572.44
2022-12-23T08:01:21.526Z,100575.44
2022-12-23T08:06:25.449Z,100581.78
2022-12-23T08:11:31.967Z,100581.19
2022-12-23T08:16:39.591Z,100605.81
2022-12-23T08:21:47.319Z,100600.59
2022-12-23T08:26:51.316Z,100609.50
2022-12-23T08:31:58.270Z,100611.44
2022-12-23T08:37:04.523Z,100618.66
2022-12-23T08:42:12.236Z,100614.25
2022-12-23T08:47:19.205Z,100603.94
2022-12-23T08:52:25.952Z,100620.59
2022-12-23T08:57:29.072Z,100618.47
2022-12-23T09:02:35.489Z,100617.81
2022-12-23T09:07:40.433Z,100609.53
2022-12-23T09:12:44.906Z,100608.97
2022-12-23T09:17:49.229Z,100610.28
2022-12-23T09:22:53.523Z,100599.13
2022-12-23T09:27:59.774Z,100602.53
2022-12-23T09:33:06.773Z,100612.44
2022-12-23T09:38:08.908Z,100607.94
2022-12-23T09:43:29.684Z,100617.38
2022-12-23T09:48:58.818Z,100609.97
2022-12-23T09:54:24.647Z,100610.44
2022-12-23T09:59:50.462Z,100594.31
2022-12-23T10:05:23.431Z,100591.13
2022-12-23T10:10:34.452Z,100586.88
2022-12-23T10:15:44.321Z,100596.44
2022-12-23T10:20:54.153Z,100601.13
2022-12-23T10:26:01.588Z,100590.06
2022-12-23T10:31:30.874Z,100585.81
2022-12-23T10:36:50.677Z,100597.25
2022-12-23T10:42:05.860Z,100583.69
2022-12-23T10:47:36.455Z,100599.72
2022-12-23T10:52:41.394Z,100589.47
2022-12-23T10:57:46.183Z,100593.81
2022-12-23T11:03:38.172Z,100584.66
2022-12-23T11:08:40.800Z,100573.81
2022-12-23T11:13:46.579Z,100579.22
2022-12-23T11:19:05.825Z,100566.75
2022-12-23T11:24:19.269Z,100552.38
2022-12-23T11:29:23.907Z,100555.31
2022-12-23T11:34:26.700Z,100539.34
2022-12-23T11:39:39.519Z,100538.50
2022-12-23T11:44:44.310Z,100518.72
2022-12-23T11:49:56.544Z,100512.50
2022-12-23T11:55:04.319Z,100516.28
2022-12-23T12:00:09.100Z,100513.00
2022-12-23T12:05:26.026Z,100515.94
2022-12-23T12:10:33.004Z,100520.53
2022-12-23T12:15:48.587Z,100523.25
2022-12-23T12:20:56.043Z,100518.03
2022-12-23T12:26:08.099Z,100513.66
2022-12-23T12:31:23.495Z,100512.84
2022-12-23T12:36:55.345Z,100514.72
2022-12-23T12:42:11.659Z,100503.91
2022-12-23T12:52:42.158Z,100478.97
2022-12-23T12:57:44.929Z,100462.94
2022-12-23T13:03:04.814Z,100452.38
2022-12-23T13:08:42.649Z,100463.22
2022-12-23T13:14:02.925Z,100456.13
2022-12-23T13:19:22.470Z,100459.09
2022-12-23T13:25:04.564Z,100470.75
2022-12-23T13:30:17.704Z,100459.91
2022-12-23T13:35:46.946Z,100446.63
2022-12-23T13:40:57.763Z,100454.75
2022-12-23T13:46:05.074Z,100442.88
2022-12-23T13:51:15.207Z,100433.91
2022-12-23T13:56:35.345Z,100439.09
2022-12-23T14:01:42.449Z,100445.56
2022-12-23T14:06:44.939Z,100451.53
2022-12-23T14:11:49.089Z,100451.81
2022-12-23T14:17:16.341Z,100446.13
2022-12-23T14:22:21.252Z,100441.56
2022-12-23T14:27:41.970Z,100433.44
2022-12-23T14:32:53.764Z,100435.06
2022-12-23T14:38:16.849Z,100435.31
2022-12-23T14:43:51.291Z,100432.84
2022-12-23T14:49:22.470Z,100427.44
2022-12-23T14:54:37.989Z,100420.38
2022-12-23T14:59:51.452Z,100415.22
2022-12-23T15:04:58.087Z,100420.63
2022-12-23T15:10:26.169Z,100410.03
2022-12-23T15:15:29.795Z,100411.09
2022-12-23T15:20:35.234Z,100398.63
2022-12-23T15:25:51.456Z,100401.34
2022-12-23T15:30:56.731Z,100399.44
2022-12-23T15:36:01.924Z,100399.44
2022-12-23T15:41:16.134Z,100401.56
2022-12-23T15:46:28.998Z,100395.13
2022-12-23T15:52:05.852Z,100382.41
2022-12-23T15:56:57.994Z,100377.47
2022-12-23T16:02:49.579Z,100376.91
2022-12-23T16:07:39.269Z,100382.31
2022-12-23T16:12:41.808Z,100382.53
2022-12-23T16:17:46.180Z,100376.63
2022-12-23T16:22:51.145Z,100373.94
2022-12-23T16:28:06.040Z,100358.78
2022-12-23T16:33:28.023Z,100353.13
2022-12-23T16:38:34.836Z,100346.88
2022-12-23T16:43:38.558Z,100330.63
2022-12-23T16:48:48.174Z,100323.59
2022-12-23T16:53:55.301Z,100326.53
2022-12-23T16:58:57.046Z,100336.78
2022-12-23T17:04:04.564Z,100341.13
2022-12-23T17:09:09.579Z,100340.28
2022-12-23T17:14:21.653Z,100338.44
2022-12-23T17:19:28.912Z,100336.88
2022-12-23T17:24:31.452Z,100345.00
2022-12-23T17:29:34.878Z,100349.34
2022-12-23T17:34:40.055Z,100350.41
2022-12-23T17:39:42.977Z,100350.66
2022-12-23T17:44:47.445Z,100356.31
2022-12-23T17:49:49.630Z,100350.31
2022-12-23T17:54:51.582Z,100345.13
2022-12-23T17:59:54.356Z,100351.63
2022-12-23T18:04:56.270Z,100363.50
2022-12-23T18:10:00.213Z,100356.69
2022-12-23T18:15:02.978Z,100349.41
2022-12-23T18:20:09.312Z,100356.09
2022-12-23T18:25:22.808Z,100355.75
2022-12-23T18:30:27.598Z,100363.72
2022-12-23T18:35:35.368Z,100366.22
2022-12-23T18:40:40.163Z,100362.69
2022-12-23T18:45:50.699Z,100358.94
2022-12-23T18:50:54.459Z,100348.31
2022-12-23T18:55:56.194Z,100348.31
2022-12-23T19:00:58.044Z,100349.16
2022-12-23T19:06:06.492Z,100355.41
2022-12-23T19:11:20.723Z,100345.16
2022-12-23T19:16:22.755Z,100350.81
2022-12-23T19:21:24.600Z,100351.84
2022-12-23T19:26:31.020Z,100350.44
2022-12-23T19:31:34.986Z,100359.63
2022-12-23T19:36:39.848Z,100351.16
2022-12-23T19:41:49.118Z,100363.06
2022-12-23T19:46:53.208Z,100360.59
2022-12-23T19:52:00.948Z,100353.78
2022-12-23T19:57:07.198Z,100360.50
2022-12-23T20:02:15.643Z,100359.94
2022-12-23T20:07:17.560Z,100357.47
2022-12-23T20:12:19.352Z,100355.00
2022-12-23T20:17:21.050Z,100364.75
2022-12-23T20:22:25.676Z,100372.31
2022-12-23T20:27:28.273Z,100362.53
2022-12-23T20:32:31.274Z,100372.78
2022-12-23T20:37:33.624Z,100371.94
2022-12-23T20:42:37.685Z,100378.19
2022-12-23T20:47:42.177Z,100368.66
2022-12-23T20:52:46.299Z,100373.25
2022-12-23T20:57:48.159Z,100367.28
2022-12-23T21:02:53.112Z,100375.38
2022-12-23T21:07:54.968Z,100390.81
2022-12-23T21:12:59.099Z,100384.81
2022-12-23T21:18:01.060Z,100370.22
2022-12-23T21:23:09.396Z,100374.78
2022-12-23T21:28:16.181Z,100381.78
2022-12-23T21:33:22.229Z,100384.03
2022-12-23T21:38:32.279Z,100384.50
2022-12-23T21:43:34.291Z,100387.50
2022-12-23T21:48:36.784Z,100382.44
2022-12-23T21:53:39.145Z,100379.91
2022-12-23T21:58:41.617Z,100389.19
2022-12-23T22:03:48.429Z,100385.50
2022-12-23T22:08:54.635Z,100393.59
2022-12-23T22:13:57.925Z,100390.91
2022-12-23T22:19:04.988Z,100381.78
2022-12-23T22:24:07.252Z,100395.53
2022-12-23T22:29:10.801Z,100399.63
2022-12-23T22:34:18.393Z,100398.16
2022-12-23T22:39:21.958Z,100398.63
2022-12-23T22:44:26.011Z,100401.44
2022-12-23T22:49:28.125Z,100405.09
2022-12-23T22:54:29.889Z,100398.09
2022-12-23T22:59:34.572Z,100399.78
2022-12-23T23:04:36.439Z,100400.75
2022-12-23T23:09:38.172Z,100395.28
2022-12-23T23:14:55.018Z,100402.44
2022-12-23T23:19:58.835Z,100411.22
2022-12-23T23:25:00.759Z,100411.22
2022-12-23T23:30:07.547Z,100403.94
2022-12-23T23:35:11.027Z,100402.94
2022-12-23T23:40:13.186Z,100408.91
2022-12-23T23:45:14.918Z,100407.75
2022-12-23T23:50:20.127Z,100398.16
2022-12-23T23:55:21.939Z,100406.78
